NCAR-RAP Real-Time Weather Data

Output produced by METARs form (23 February 2020  01:43 UTC)
found at http://weather.rap.ucar.edu/surface/
 
KAUS 230053Z 15006KT 10SM SCT200 BKN250 14/05 A3020 RMK AO2 SLP227 T01390050 $
KAUS 222353Z 16010KT 10SM SCT200 BKN250 16/04 A3020 RMK AO2 SLP228 T01560044 10172 20144 56022 $
KAUS 222253Z 16011KT 10SM SCT200 BKN250 16/04 A3022 RMK AO2 SLP233 T01610044 $
KAUS 222153Z 15011G20KT 10SM SCT200 BKN250 17/04 A3023 RMK AO2 SLP236 T01720039 $
KAUS 222053Z 17010G18KT 10SM BKN250 17/04 A3027 RMK AO2 SLP250 T01720044 56037 $
KAUS 221953Z 15012G18KT 10SM BKN250 16/04 A3029 RMK AO2 SLP260 T01610039 $
KAUS 221853Z COR 20008KT 10SM BKN250 16/04 A3034 RMK AO2 SLP275 T01560039 $
KAUS 221753Z 20010G18KT 10SM FEW250 14/03 A3038 RMK AO2 SLP288 T01440033 10144 20061 58013 $
KAUS 221653Z 19011KT 10SM FEW070 FEW120 FEW250 13/04 A3040 RMK AO2 SLP296 T01330039 $
KAUS 221553Z 18006KT 10SM FEW065 FEW120 SCT250 11/02 A3041 RMK AO2 SLP301 T01110022 $
KAUS 221453Z 18004KT 10SM FEW065 FEW120 BKN250 08/02 A3041 RMK AO2 SLP303 T00830022 53004 $
KAUS 221353Z 20003KT 10SM SCT065 BKN200 BKN250 06/03 A3039 RMK AO2 SLP295 T00610028 $
KAUS 221253Z 00000KT 10SM OVC065 07/03 A3040 RMK AO2 SLP299 T00670033 $
KAUS 221153Z 00000KT 10SM OVC070 07/03 A3040 RMK AO2 SLP298 T00670028 10067 20033 56009 $
KAUS 221053Z 00000KT 10SM OVC070 07/04 A3041 RMK AO2 SLP300 T00670039 $
KAUS 220953Z 00000KT 10SM OVC070 06/03 A3041 RMK AO2 SLP300 T00560033 $
KAUS 220853Z 00000KT 10SM FEW065 BKN250 05/02 A3043 RMK AO2 PRESFR SLP308 T00500022 58017 $
KAUS 220753Z 00000KT 10SM FEW065 SCT250 03/01 A3046 RMK AO2 SLP319 T00330011 $
KAUS 220653Z 00000KT 10SM SCT065 SCT250 04/02 A3047 RMK AO2 SLP321 T00440017 $
KAUS 220553Z 00000KT 10SM BKN070 BKN250 07/02 A3048 RMK AO2 SLP326 T00670022 10106 20033 401220022 58011 $
KAUS 220453Z 00000KT 10SM SCT250 04/01 A3050 RMK AO2 SLP332 T00390006 $
KAUS 220353Z 11003KT 10SM BKN250 07/01 A3050 RMK AO2 SLP333 T00720011
KAUS 220253Z 09003KT 10SM BKN250 08/01 A3051 RMK AO2 SLP338 T00780011 53005
KAUS 220153Z 08003KT 10SM SCT250 08/01 A3051 RMK AO2 SLP335 T00830011
KAUS 220053Z 07005KT 10SM BKN250 08/01 A3050 RMK AO2 SLP335 T00830011
KAUS 212353Z 05008KT 10SM BKN250 11/01 A3050 RMK AO2 SLP333 T01060011 10122 20089 55020
KAUS 212253Z 04011KT 10SM BKN250 12/01 A3050 RMK AO2 SLP331 T01170011
KAUS 212153Z 04008KT 10SM SCT150 12/01 A3053 RMK AO2 SLP341 T01170011
KAUS 212053Z VRB05KT 10SM SCT150 12/02 A3056 RMK AO2 SLP352 T01170017 56039
KAUS 211953Z 04013G17KT 10SM FEW035 SCT150 11/02 A3058 RMK AO2 SLP359 T01060017
KAUS 211853Z 36007G18KT 10SM FEW033 FEW150 10/01 A3063 RMK AO2 SLP377 T01000011
KAUS 211753Z 04011G16KT 10SM FEW055 FEW150 09/01 A3068 RMK AO2 SLP392 T00890006 10089 20022 58006
KAUS 211653Z 01008KT 10SM FEW150 08/01 A3072 RMK AO2 SLP407 T00780006
KAUS 211553Z 02011KT 10SM FEW150 06/M01 A3070 RMK AO2 SLP400 T00611006
KAUS 211453Z 02015KT 10SM FEW150 05/M01 A3069 RMK AO2 SLP399 T00501011 51015
KAUS 211353Z 01012KT 10SM FEW150 03/M01 A3068 RMK AO2 SLP393 T00331011
KAUS 211253Z 36011KT 10SM FEW035 02/M02 A3067 RMK AO2 SLP390 T00221017
KAUS 211153Z 36011KT 10SM SCT034 03/M01 A3065 RMK AO2 SLP383 70024 T00281011 10067 20028 53007
KAUS 211053Z 36011KT 10SM FEW250 03/M01 A3064 RMK AO2 SLP381 T00281011
KAUS 210953Z 36012KT 10SM CLR 03/M01 A3063 RMK AO2 SLP376 T00331006
KAUS 210853Z 36012KT 10SM CLR 04/00 A3063 RMK AO2 SLP375 T00440000 50001
KAUS 210753Z 36012KT 10SM CLR 05/00 A3063 RMK AO2 SLP378 T00500000
KAUS 210653Z 36014KT 10SM CLR 06/01 A3063 RMK AO2 SLP377 T00560006
KAUS 210553Z 01014KT 10SM CLR 07/01 A3062 RMK AO2 SLP374 T00670011 10106 20056 401060056 51021
KAUS 210453Z 01011KT 10SM CLR 07/02 A3062 RMK AO2 SLP372 T00720022
KAUS 210353Z 01015KT 10SM CLR 08/02 A3059 RMK AO2 SLP363 T00830022
KAUS 210253Z 01008KT 10SM CLR 07/03 A3056 RMK AO2 SLP353 T00670028 53029
KAUS 210153Z 36009KT 10SM FEW110 08/03 A3053 RMK AO2 SLP342 T00830033